createdAt,value
2023-04-02T00:00:28.033Z,12.18
2023-04-02T00:01:28.055Z,12.20
2023-04-02T00:02:28.250Z,12.20
2023-04-02T00:03:28.222Z,12.20
2023-04-02T00:04:28.292Z,12.17
2023-04-02T00:05:28.294Z,12.16
2023-04-02T00:06:28.404Z,12.18
2023-04-02T00:07:28.452Z,12.22
2023-04-02T00:08:28.519Z,12.21
2023-04-02T00:09:28.567Z,12.20
2023-04-02T00:10:28.637Z,12.19
2023-04-02T00:11:28.706Z,12.17
2023-04-02T00:12:28.781Z,12.17
2023-04-02T00:13:28.808Z,12.20
2023-04-02T00:14:28.844Z,12.25
2023-04-02T00:15:28.984Z,12.27
2023-04-02T00:16:29.073Z,12.26
2023-04-02T00:17:29.087Z,12.30
2023-04-02T00:18:29.172Z,12.31
2023-04-02T00:19:29.212Z,12.30
2023-04-02T00:20:29.285Z,12.27
2023-04-02T00:21:29.334Z,12.22
2023-04-02T00:22:29.386Z,12.25
2023-04-02T00:23:29.449Z,12.25
2023-04-02T00:24:29.506Z,12.23
2023-04-02T00:25:29.561Z,12.22
2023-04-02T00:26:29.592Z,12.23
2023-04-02T00:27:29.670Z,12.23
2023-04-02T00:28:29.709Z,12.22
2023-04-02T00:29:29.724Z,12.25
2023-04-02T00:30:29.808Z,12.29
2023-04-02T00:31:29.839Z,12.31
2023-04-02T00:32:29.925Z,12.30
2023-04-02T00:33:29.941Z,12.25
2023-04-02T00:34:29.982Z,12.21
2023-04-02T00:35:30.022Z,12.18
2023-04-02T00:36:30.158Z,12.17
2023-04-02T00:37:30.171Z,12.18
2023-04-02T00:38:30.214Z,12.19
2023-04-02T00:39:30.260Z,12.23
2023-04-02T00:40:30.385Z,12.24
2023-04-02T00:41:30.433Z,12.21
2023-04-02T00:42:30.523Z,12.17
2023-04-02T00:43:30.569Z,12.17
2023-04-02T00:44:30.544Z,12.19
2023-04-02T00:45:30.564Z,12.20
2023-04-02T00:46:30.677Z,12.18
2023-04-02T00:47:30.651Z,12.17
2023-04-02T00:48:30.663Z,12.17
2023-04-02T00:49:30.745Z,12.18
2023-04-02T00:50:30.737Z,12.23
2023-04-02T00:51:30.807Z,12.25
2023-04-02T00:52:30.802Z,12.27
2023-04-02T00:53:30.827Z,12.31
2023-04-02T00:54:30.831Z,12.28
2023-04-02T00:55:30.827Z,12.27
2023-04-02T00:56:30.914Z,12.27
2023-04-02T00:57:31.544Z,12.25
2023-04-02T00:58:31.072Z,12.23
2023-04-02T00:59:31.078Z,12.22
2023-04-02T01:00:31.122Z,12.18
2023-04-02T01:01:31.184Z,12.17
2023-04-02T01:02:31.322Z,12.15
2023-04-02T01:03:31.322Z,12.15
2023-04-02T01:04:31.249Z,12.15
2023-04-02T01:05:31.298Z,12.19
2023-04-02T01:06:31.408Z,12.20
2023-04-02T01:07:31.430Z,12.20
2023-04-02T01:08:31.415Z,12.21
2023-04-02T01:09:31.421Z,12.22
2023-04-02T01:10:31.437Z,12.16
2023-04-02T01:11:31.448Z,12.15
2023-04-02T01:12:31.445Z,12.18
2023-04-02T01:13:31.453Z,12.19
2023-04-02T01:14:31.424Z,12.12
2023-04-02T01:15:31.520Z,12.08
2023-04-02T01:16:31.524Z,12.07
2023-04-02T01:17:31.584Z,12.07
2023-04-02T01:18:31.543Z,12.11
2023-04-02T01:19:31.520Z,12.15
2023-04-02T01:20:31.501Z,12.19
2023-04-02T01:21:31.483Z,12.19
2023-04-02T01:22:31.537Z,12.16
2023-04-02T01:23:31.574Z,12.16
2023-04-02T01:24:31.654Z,12.19
2023-04-02T01:25:32.000Z,12.20
2023-04-02T01:26:31.741Z,12.18
2023-04-02T01:27:31.800Z,12.16
2023-04-02T01:28:31.864Z,12.18
2023-04-02T01:29:31.935Z,12.18
2023-04-02T01:30:32.049Z,12.14
2023-04-02T01:31:32.174Z,12.14
2023-04-02T01:32:32.227Z,12.16
2023-04-02T01:33:32.197Z,12.18
2023-04-02T01:34:32.289Z,12.12
2023-04-02T01:35:32.274Z,12.08
2023-04-02T01:36:32.313Z,12.08
2023-04-02T01:37:32.474Z,12.08
2023-04-02T01:38:32.437Z,12.06
2023-04-02T01:39:32.450Z,12.10
2023-04-02T01:40:32.448Z,12.14
2023-04-02T01:41:32.457Z,12.13
2023-04-02T01:42:32.452Z,12.13
2023-04-02T01:43:32.492Z,12.16
2023-04-02T01:44:32.481Z,12.17
2023-04-02T01:45:32.839Z,12.18
2023-04-02T01:46:32.630Z,12.14
2023-04-02T01:47:32.719Z,12.12
2023-04-02T01:48:32.760Z,12.12
2023-04-02T01:49:32.779Z,12.09
2023-04-02T01:50:32.766Z,12.08
2023-04-02T01:51:32.817Z,12.10
2023-04-02T01:52:32.848Z,12.10
2023-04-02T01:53:32.836Z,12.10
2023-04-02T01:54:32.871Z,12.11
2023-04-02T01:55:33.117Z,12.13
2023-04-02T01:56:32.853Z,12.11
2023-04-02T01:57:32.988Z,12.14
2023-04-02T01:58:32.889Z,12.13
2023-04-02T01:59:32.911Z,12.11
2023-04-02T02:00:33.800Z,12.10
2023-04-02T02:01:32.890Z,12.08
2023-04-02T02:02:32.970Z,12.07
2023-04-02T02:03:32.925Z,12.06
2023-04-02T02:04:32.906Z,12.05
2023-04-02T02:05:33.149Z,12.05
2023-04-02T02:06:32.913Z,12.05
2023-04-02T02:07:32.979Z,12.08
2023-04-02T02:08:32.969Z,12.07
2023-04-02T02:09:32.979Z,12.03
2023-04-02T02:10:32.968Z,12.02
2023-04-02T02:11:33.082Z,12.03
2023-04-02T02:12:33.067Z,12.07
2023-04-02T02:13:33.049Z,12.06
2023-04-02T02:14:33.029Z,12.09
2023-04-02T02:15:33.264Z,12.07
2023-04-02T02:16:33.065Z,12.04
2023-04-02T02:17:33.145Z,11.99
2023-04-02T02:18:33.088Z,11.97
2023-04-02T02:19:33.081Z,11.90
2023-04-02T02:20:33.103Z,11.86
2023-04-02T02:21:33.084Z,11.86
2023-04-02T02:22:33.104Z,11.86
2023-04-02T02:23:33.086Z,11.85
2023-04-02T02:24:33.170Z,11.86
2023-04-02T02:25:33.544Z,11.87
2023-04-02T02:26:33.195Z,11.89
2023-04-02T02:27:33.182Z,11.90
2023-04-02T02:28:33.187Z,11.89
2023-04-02T02:29:33.194Z,11.87
2023-04-02T02:30:33.273Z,11.83
2023-04-02T02:31:33.365Z,11.81
2023-04-02T02:32:33.412Z,11.79
2023-04-02T02:33:33.362Z,11.79
2023-04-02T02:34:33.376Z,11.81
2023-04-02T02:35:33.836Z,11.79
2023-04-02T02:36:33.440Z,11.77
2023-04-02T02:37:33.377Z,11.73
2023-04-02T02:38:33.451Z,11.67
2023-04-02T02:39:33.361Z,11.63
2023-04-02T02:40:33.372Z,11.60
2023-04-02T02:41:33.393Z,11.59
2023-04-02T02:42:33.412Z,11.62
2023-04-02T02:43:33.393Z,11.65
2023-04-02T02:44:33.397Z,11.63
2023-04-02T02:45:33.574Z,11.62
2023-04-02T02:46:33.406Z,11.59
2023-04-02T02:47:33.446Z,11.59
2023-04-02T02:48:33.372Z,11.61
2023-04-02T02:49:33.437Z,11.61
2023-04-02T02:50:33.420Z,11.61
2023-04-02T02:51:33.433Z,11.61
2023-04-02T02:52:33.468Z,11.62
2023-04-02T02:53:33.496Z,11.60
2023-04-02T02:54:33.513Z,11.59
2023-04-02T02:55:33.804Z,11.57
2023-04-02T02:56:33.575Z,11.54
2023-04-02T02:57:33.675Z,11.52
2023-04-02T02:58:33.596Z,11.49
2023-04-02T02:59:33.622Z,11.47
2023-04-02T03:00:33.670Z,11.47
2023-04-02T03:01:33.695Z,11.52
2023-04-02T03:02:33.814Z,11.56
2023-04-02T03:03:33.770Z,11.58
2023-04-02T03:04:33.774Z,11.58
2023-04-02T03:05:34.103Z,11.58
2023-04-02T03:06:33.871Z,11.60
2023-04-02T03:07:33.872Z,11.61
2023-04-02T03:08:33.927Z,11.64
2023-04-02T03:09:33.983Z,11.59
2023-04-02T03:10:33.982Z,11.60
2023-04-02T03:11:34.001Z,11.57
2023-04-02T03:12:34.087Z,11.56
2023-04-02T03:13:34.097Z,11.56
2023-04-02T03:14:34.133Z,11.56
2023-04-02T03:15:34.332Z,11.58
2023-04-02T03:16:34.137Z,11.59
2023-04-02T03:17:34.193Z,11.63
2023-04-02T03:18:34.137Z,11.66
2023-04-02T03:19:34.152Z,11.67
2023-04-02T03:20:34.184Z,11.69
2023-04-02T03:21:34.215Z,11.66
2023-04-02T03:22:34.268Z,11.62
2023-04-02T03:23:34.271Z,11.61
2023-04-02T03:24:34.296Z,11.61
2023-04-02T03:25:34.529Z,11.62
2023-04-02T03:26:34.401Z,11.60
2023-04-02T03:27:34.422Z,11.62
2023-04-02T03:28:34.464Z,11.63
2023-04-02T03:29:34.492Z,11.59
2023-04-02T03:30:34.532Z,11.59
2023-04-02T03:31:34.636Z,11.59
2023-04-02T03:32:34.728Z,11.62
2023-04-02T03:33:34.655Z,11.58
2023-04-02T03:34:34.729Z,11.55
2023-04-02T03:35:35.001Z,11.56
2023-04-02T03:36:34.784Z,11.56
2023-04-02T03:37:34.850Z,11.55
2023-04-02T03:38:34.868Z,11.54
2023-04-02T03:39:34.905Z,11.51
2023-04-02T03:40:34.933Z,11.54
2023-04-02T03:41:34.986Z,11.54
2023-04-02T03:42:35.064Z,11.51
2023-04-02T03:43:35.045Z,11.51
2023-04-02T03:44:35.075Z,11.54
2023-04-02T03:45:35.231Z,11.56
2023-04-02T03:46:35.227Z,11.59
2023-04-02T03:47:35.292Z,11.61
2023-04-02T03:48:35.249Z,11.62
2023-04-02T03:49:35.311Z,11.62
2023-04-02T03:50:35.387Z,11.60
2023-04-02T03:51:35.444Z,11.60
2023-04-02T03:52:35.511Z,11.59
2023-04-02T03:53:35.555Z,11.60
2023-04-02T03:54:35.602Z,11.62
2023-04-02T03:55:35.822Z,11.60
2023-04-02T03:56:35.738Z,11.54
2023-04-02T03:57:35.758Z,11.51
2023-04-02T03:58:35.802Z,11.51
2023-04-02T03:59:35.845Z,11.49
2023-04-02T04:00:35.879Z,11.49
2023-04-02T04:01:36.017Z,11.47
2023-04-02T04:02:36.078Z,11.46
2023-04-02T04:03:36.019Z,11.45
2023-04-02T04:04:36.073Z,11.45
2023-04-02T04:05:36.487Z,11.43
2023-04-02T04:06:36.165Z,11.40
2023-04-02T04:07:36.186Z,11.37
2023-04-02T04:08:36.173Z,11.30
2023-04-02T04:09:36.216Z,11.28
2023-04-02T04:10:36.259Z,11.29
2023-04-02T04:11:36.257Z,11.27
2023-04-02T04:12:36.295Z,11.21
2023-04-02T04:13:36.251Z,11.17
2023-04-02T04:14:36.275Z,11.16
2023-04-02T04:15:36.484Z,11.15
2023-04-02T04:16:36.411Z,11.16
2023-04-02T04:17:36.296Z,11.15
2023-04-02T04:18:36.254Z,11.11
2023-04-02T04:19:36.295Z,11.11
2023-04-02T04:20:36.290Z,11.08
2023-04-02T04:21:36.322Z,11.10
2023-04-02T04:22:36.337Z,11.09
2023-04-02T04:23:36.362Z,11.07
2023-04-02T04:24:36.381Z,11.11
2023-04-02T04:25:36.614Z,11.07
2023-04-02T04:26:36.547Z,11.04
2023-04-02T04:27:36.480Z,11.06
2023-04-02T04:28:36.528Z,11.03
2023-04-02T04:29:36.538Z,11.01
2023-04-02T04:30:36.539Z,11.00
2023-04-02T04:31:36.637Z,10.97
2023-04-02T04:32:36.605Z,10.83
2023-04-02T04:33:36.564Z,10.81
2023-04-02T04:34:36.551Z,10.78
2023-04-02T04:35:36.845Z,10.74
2023-04-02T04:36:36.603Z,10.74
2023-04-02T04:37:36.639Z,10.72
2023-04-02T04:38:36.641Z,10.68
2023-04-02T04:39:36.666Z,10.68
2023-04-02T04:40:36.722Z,10.73
2023-04-02T04:41:36.724Z,10.74
2023-04-02T04:42:36.763Z,10.74
2023-04-02T04:43:36.815Z,10.72
2023-04-02T04:44:36.770Z,10.70
2023-04-02T04:45:36.957Z,10.72
2023-04-02T04:46:36.815Z,10.68
2023-04-02T04:47:36.811Z,10.69
2023-04-02T04:48:36.810Z,10.72
2023-04-02T04:49:36.897Z,10.70
2023-04-02T04:50:36.888Z,10.68
2023-04-02T04:51:36.931Z,10.67
2023-04-02T04:52:36.958Z,10.68
2023-04-02T04:53:36.979Z,10.68
2023-04-02T04:54:36.971Z,10.71
2023-04-02T04:55:37.256Z,10.71
2023-04-02T04:56:37.047Z,10.69
2023-04-02T04:57:37.147Z,10.69
2023-04-02T04:58:37.101Z,10.70
2023-04-02T04:59:37.102Z,10.68
2023-04-02T05:00:37.158Z,10.67
2023-04-02T05:01:37.206Z,10.67
2023-04-02T05:02:37.276Z,10.64
2023-04-02T05:03:37.250Z,10.64
2023-04-02T05:04:37.437Z,10.63
2023-04-02T05:05:37.370Z,10.66
2023-04-02T05:06:37.365Z,10.69
2023-04-02T05:07:37.426Z,10.67
2023-04-02T05:08:37.440Z,10.66
2023-04-02T05:09:37.492Z,10.71
2023-04-02T05:10:37.517Z,10.74
2023-04-02T05:11:37.550Z,10.75
2023-04-02T05:12:37.621Z,10.75
2023-04-02T05:13:37.658Z,10.78
2023-04-02T05:14:37.700Z,10.78
2023-04-02T05:15:37.884Z,10.80
2023-04-02T05:16:37.808Z,10.80
2023-04-02T05:17:37.820Z,10.75
2023-04-02T05:18:37.813Z,10.73
2023-04-02T05:19:37.845Z,10.75
2023-04-02T05:20:37.920Z,10.77
2023-04-02T05:21:37.958Z,10.77
2023-04-02T05:22:39.490Z,10.77
2023-04-02T05:23:38.002Z,10.73
2023-04-02T05:24:37.983Z,10.72
2023-04-02T05:25:38.158Z,10.72
2023-04-02T05:26:37.932Z,10.73
2023-04-02T05:27:37.969Z,10.71
2023-04-02T05:28:37.978Z,10.73
2023-04-02T05:29:37.942Z,10.77
2023-04-02T05:30:37.947Z,10.75
2023-04-02T05:31:38.005Z,10.75
2023-04-02T05:32:37.979Z,10.74
2023-04-02T05:33:37.905Z,10.74
2023-04-02T05:34:37.930Z,10.76
2023-04-02T05:35:38.314Z,10.74
2023-04-02T05:36:37.941Z,10.68
2023-04-02T05:37:37.891Z,10.66
2023-04-02T05:38:37.900Z,10.62
2023-04-02T05:39:37.856Z,10.61
2023-04-02T05:40:37.865Z,10.62
2023-04-02T05:41:37.889Z,10.62
2023-04-02T05:42:37.927Z,10.63
2023-04-02T05:43:37.893Z,10.65
2023-04-02T05:44:39.211Z,10.67
2023-04-02T05:45:38.019Z,10.68
2023-04-02T05:46:37.896Z,10.72
2023-04-02T05:47:37.890Z,10.76
2023-04-02T05:48:37.822Z,10.81
2023-04-02T05:49:37.822Z,10.86
2023-04-02T05:50:37.888Z,10.87
2023-04-02T05:51:37.808Z,10.84
2023-04-02T05:52:37.801Z,10.89
2023-04-02T05:53:37.823Z,10.88
2023-04-02T05:54:37.806Z,10.84
2023-04-02T05:55:37.770Z,10.88
2023-04-02T05:56:37.780Z,10.90
2023-04-02T05:58:37.886Z,10.90
2023-04-02T05:59:37.732Z,10.91
2023-04-02T06:00:37.757Z,10.93
2023-04-02T06:01:37.772Z,10.94
2023-04-02T06:02:37.873Z,10.95
2023-04-02T06:03:37.815Z,10.95
2023-04-02T06:04:37.745Z,10.99
2023-04-02T06:05:37.839Z,11.04
2023-04-02T06:06:37.708Z,11.02
2023-04-02T06:07:37.675Z,10.99
2023-04-02T06:08:37.691Z,11.06
2023-04-02T06:09:37.706Z,11.10
2023-04-02T06:10:37.651Z,11.14
2023-04-02T06:11:37.674Z,11.18
2023-04-02T06:12:37.669Z,11.21
2023-04-02T06:13:37.693Z,11.23
2023-04-02T06:14:37.634Z,11.26
2023-04-02T06:15:38.394Z,11.32
2023-04-02T06:16:37.695Z,11.37
2023-04-02T06:17:37.717Z,11.38
2023-04-02T06:18:37.612Z,11.36
2023-04-02T06:19:37.609Z,11.33
2023-04-02T06:20:37.611Z,11.33
2023-04-02T06:21:37.593Z,11.36
2023-04-02T06:22:37.585Z,11.33
2023-04-02T06:23:37.613Z,11.32
2023-04-02T06:24:37.586Z,11.31
2023-04-02T06:25:37.934Z,11.38
2023-04-02T06:26:37.562Z,11.43
2023-04-02T06:27:37.543Z,11.52
2023-04-02T06:28:37.580Z,11.58
2023-04-02T06:29:37.533Z,11.65
2023-04-02T06:30:37.544Z,11.67
2023-04-02T06:31:37.483Z,11.68
2023-04-02T06:32:37.514Z,11.72
2023-04-02T06:33:37.511Z,11.76
2023-04-02T06:34:37.511Z,11.81
2023-04-02T06:35:37.735Z,11.76
2023-04-02T06:36:37.476Z,11.76
2023-04-02T06:37:37.452Z,11.78
2023-04-02T06:38:37.454Z,11.87
2023-04-02T06:39:37.450Z,11.93
2023-04-02T06:40:37.472Z,12.00
2023-04-02T06:41:37.450Z,12.07
2023-04-02T06:42:37.419Z,12.10
2023-04-02T06:43:37.430Z,12.20
2023-04-02T06:44:37.460Z,12.28
2023-04-02T06:45:37.449Z,12.30
2023-04-02T06:46:37.627Z,12.35
2023-04-02T06:47:37.402Z,12.40
2023-04-02T06:48:37.455Z,12.40
2023-04-02T06:49:37.445Z,12.34
2023-04-02T06:50:37.420Z,12.41
2023-04-02T06:51:37.444Z,12.53
2023-04-02T06:52:37.436Z,12.58
2023-04-02T06:53:37.525Z,12.61
2023-04-02T06:54:37.612Z,12.74
2023-04-02T06:55:37.984Z,12.87
2023-04-02T06:56:37.657Z,12.88
2023-04-02T06:57:37.699Z,12.98
2023-04-02T06:58:37.742Z,13.07
2023-04-02T06:59:37.689Z,13.09
2023-04-02T07:00:37.684Z,13.18
2023-04-02T07:01:37.786Z,13.12
2023-04-02T07:02:37.798Z,13.03
2023-04-02T07:03:37.812Z,13.05
2023-04-02T07:04:37.869Z,13.14
2023-04-02T07:05:38.883Z,13.05
2023-04-02T07:06:38.033Z,13.17
2023-04-02T07:07:38.109Z,13.17
2023-04-02T07:08:38.139Z,13.19
2023-04-02T07:09:38.152Z,13.30
2023-04-02T07:10:38.168Z,13.37
2023-04-02T07:11:38.174Z,13.43
2023-04-02T07:12:38.170Z,13.40
2023-04-02T07:13:38.186Z,13.53
2023-04-02T07:14:38.433Z,13.61
2023-04-02T07:15:38.288Z,13.88
2023-04-02T07:16:38.250Z,14.13
2023-04-02T07:17:38.248Z,14.20
2023-04-02T07:18:38.264Z,14.34
2023-04-02T07:19:38.299Z,14.39
2023-04-02T07:20:38.234Z,14.43
2023-04-02T07:21:38.337Z,14.50
2023-04-02T07:22:38.339Z,14.57
2023-04-02T07:23:38.455Z,14.53
2023-04-02T07:24:38.472Z,14.60
2023-04-02T07:25:38.525Z,14.45
2023-04-02T07:26:38.615Z,14.38
2023-04-02T07:27:38.665Z,14.29
2023-04-02T07:28:38.769Z,14.44
2023-04-02T07:29:38.814Z,14.80
2023-04-02T07:30:38.871Z,15.51
2023-04-02T07:31:38.908Z,15.99
2023-04-02T07:32:39.007Z,15.87
2023-04-02T07:33:40.637Z,15.73
2023-04-02T07:34:38.908Z,15.47
2023-04-02T07:35:38.938Z,15.32
2023-04-02T07:36:38.898Z,15.17
2023-04-02T07:37:38.877Z,15.09
2023-04-02T07:38:38.929Z,15.18
2023-04-02T07:39:40.243Z,15.17
2023-04-02T07:40:38.877Z,15.16
2023-04-02T07:41:38.864Z,15.10
2023-04-02T07:42:38.831Z,15.20
2023-04-02T07:43:38.836Z,15.75
2023-04-02T07:44:38.974Z,16.34
2023-04-02T07:45:38.853Z,16.91
2023-04-02T07:46:38.855Z,17.98
2023-04-02T07:47:38.858Z,18.92
2023-04-02T07:48:38.828Z,19.29
2023-04-02T07:49:38.764Z,19.42
2023-04-02T07:50:38.814Z,19.12
2023-04-02T07:51:38.785Z,19.01
2023-04-02T07:52:40.356Z,19.05
2023-04-02T07:53:38.829Z,18.89
2023-04-02T07:54:38.901Z,18.35
2023-04-02T07:55:38.915Z,18.20
2023-04-02T07:56:38.897Z,18.08
2023-04-02T07:57:39.035Z,18.04
2023-04-02T07:58:39.106Z,17.73
2023-04-02T07:59:39.266Z,17.95
2023-04-02T08:00:39.256Z,18.31
2023-04-02T08:01:39.275Z,18.99
2023-04-02T08:02:39.301Z,19.00
2023-04-02T08:03:39.346Z,18.76
2023-04-02T08:04:39.352Z,19.69
2023-04-02T08:05:39.358Z,19.71
2023-04-02T08:06:39.422Z,19.45
2023-04-02T08:07:39.417Z,19.49
2023-04-02T08:08:39.463Z,19.76
2023-04-02T08:09:39.481Z,19.92
2023-04-02T08:10:39.532Z,19.90
2023-04-02T08:11:39.517Z,20.00
2023-04-02T08:12:39.565Z,20.11
2023-04-02T08:13:39.626Z,20.34
2023-04-02T08:14:39.631Z,20.73
2023-04-02T08:15:39.645Z,20.87
2023-04-02T08:16:39.719Z,20.75
2023-04-02T08:17:39.727Z,20.26
2023-04-02T08:18:39.769Z,19.68
2023-04-02T08:19:53.804Z,19.59
2023-04-02T08:20:40.754Z,19.59
2023-04-02T08:21:39.730Z,19.73
2023-04-02T08:22:39.753Z,20.06
2023-04-02T08:23:39.743Z,19.94
2023-04-02T08:24:39.765Z,19.69
2023-04-02T08:25:39.693Z,19.42
2023-04-02T08:26:39.738Z,19.05
2023-04-02T08:27:39.731Z,18.91
2023-04-02T08:28:39.696Z,18.94
2023-04-02T08:29:39.703Z,18.99
2023-04-02T08:30:39.719Z,18.83
2023-04-02T08:31:39.691Z,18.68
2023-04-02T08:32:39.666Z,18.53
2023-04-02T08:33:39.701Z,18.39
2023-04-02T08:34:39.661Z,18.39
2023-04-02T08:35:39.908Z,18.39
2023-04-02T08:36:39.688Z,18.54
2023-04-02T08:37:39.746Z,18.70
2023-04-02T08:38:39.740Z,18.70
2023-04-02T08:39:39.852Z,18.75
2023-04-02T08:40:40.642Z,19.13
2023-04-02T08:41:39.931Z,19.53
2023-04-02T08:42:39.933Z,19.77
2023-04-02T08:43:39.982Z,19.77
2023-04-02T08:44:40.936Z,20.04
2023-04-02T08:45:40.240Z,20.36
2023-04-02T08:46:40.083Z,20.33
2023-04-02T08:47:40.166Z,20.32
2023-04-02T08:48:42.504Z,20.14
2023-04-02T08:49:40.305Z,20.38
2023-04-02T08:50:40.451Z,20.43
2023-04-02T08:51:40.416Z,20.54
2023-04-02T08:52:40.402Z,20.54
2023-04-02T08:53:40.478Z,20.85
2023-04-02T08:54:40.504Z,20.69
2023-04-02T08:55:40.518Z,20.65
2023-04-02T08:56:40.538Z,20.78
2023-04-02T08:57:40.545Z,20.30
2023-04-02T08:58:40.641Z,20.23
2023-04-02T08:59:40.666Z,20.27
2023-04-02T09:00:40.706Z,20.19
2023-04-02T09:01:40.851Z,19.92
2023-04-02T09:02:40.786Z,20.05
2023-04-02T09:03:40.824Z,20.30
2023-04-02T09:04:40.813Z,20.50
2023-04-02T09:05:40.843Z,20.69
2023-04-02T09:06:40.952Z,20.68
2023-04-02T09:07:40.941Z,20.67
2023-04-02T09:08:40.985Z,20.79
2023-04-02T09:09:41.008Z,21.12
2023-04-02T09:10:41.037Z,21.07
2023-04-02T09:11:41.031Z,21.13
2023-04-02T09:12:42.247Z,21.19
2023-04-02T09:13:41.160Z,21.09
2023-04-02T09:14:41.149Z,20.93
2023-04-02T09:15:41.227Z,21.20
2023-04-02T09:16:41.209Z,21.31
2023-04-02T09:17:53.017Z,21.30
2023-04-02T09:18:42.285Z,21.00
2023-04-02T09:19:41.224Z,21.09
2023-04-02T09:20:41.217Z,21.18
2023-04-02T09:21:41.251Z,21.17
2023-04-02T09:22:41.276Z,21.12
2023-04-02T09:23:41.238Z,21.19
2023-04-02T09:24:41.186Z,20.97
2023-04-02T09:25:41.369Z,20.86
2023-04-02T09:26:41.191Z,20.96
2023-04-02T09:27:41.148Z,21.08
2023-04-02T09:28:41.151Z,21.08
2023-04-02T09:29:41.166Z,21.24
2023-04-02T09:30:41.188Z,21.26
2023-04-02T09:31:41.249Z,21.32
2023-04-02T09:32:41.164Z,21.36
2023-04-02T09:33:41.169Z,21.54
2023-04-02T09:34:41.206Z,21.69
2023-04-02T09:35:41.410Z,21.68
2023-04-02T09:36:41.257Z,21.73
2023-04-02T09:37:41.318Z,21.87
2023-04-02T09:38:41.302Z,21.88
2023-04-02T09:39:41.353Z,21.76
2023-04-02T09:40:41.345Z,21.55
2023-04-02T09:41:41.410Z,21.49
2023-04-02T09:42:41.449Z,21.46
2023-04-02T09:43:41.515Z,21.54
2023-04-02T09:44:41.543Z,21.44
2023-04-02T09:45:41.581Z,21.45
2023-04-02T09:46:41.694Z,21.45
2023-04-02T09:47:42.294Z,21.05
2023-04-02T09:48:41.696Z,20.81
2023-04-02T09:49:41.715Z,20.70
2023-04-02T09:50:41.767Z,20.71
2023-04-02T09:51:41.800Z,20.65
2023-04-02T09:52:41.829Z,20.70
2023-04-02T09:53:42.677Z,20.67
2023-04-02T09:54:41.881Z,20.48
2023-04-02T09:55:41.877Z,20.51
2023-04-02T09:56:41.919Z,20.56
2023-04-02T09:57:41.886Z,20.64
2023-04-02T09:58:41.937Z,20.60
2023-04-02T09:59:42.009Z,20.52
2023-04-02T10:00:42.320Z,20.60
2023-04-02T10:01:42.038Z,20.62
2023-04-02T10:02:42.020Z,20.51
2023-04-02T10:03:42.013Z,20.34
2023-04-02T10:04:42.080Z,20.35
2023-04-02T10:05:42.064Z,20.34
2023-04-02T10:06:42.085Z,20.29
2023-04-02T10:07:42.080Z,20.22
2023-04-02T10:08:42.071Z,20.28
2023-04-02T10:09:42.069Z,20.31
2023-04-02T10:10:42.102Z,20.37
2023-04-02T10:11:46.656Z,20.39
2023-04-02T10:12:42.112Z,20.17
2023-04-02T10:13:42.139Z,20.13
2023-04-02T10:14:42.141Z,20.23
2023-04-02T10:15:42.090Z,20.22
2023-04-02T10:16:42.103Z,20.28
2023-04-02T10:17:42.161Z,20.26
2023-04-02T10:18:42.099Z,20.38
2023-04-02T10:19:42.062Z,20.29
2023-04-02T10:20:50.961Z,20.15
2023-04-02T10:21:43.079Z,20.22
2023-04-02T10:22:42.037Z,20.29
2023-04-02T10:23:42.037Z,20.26
2023-04-02T10:24:42.038Z,20.30
2023-04-02T10:25:42.037Z,20.36
2023-04-02T10:26:42.019Z,20.43
2023-04-02T10:27:42.990Z,20.54
2023-04-02T10:28:42.027Z,20.55
2023-04-02T10:29:41.987Z,20.57
2023-04-02T10:30:42.045Z,20.70
2023-04-02T10:31:41.999Z,20.90
2023-04-02T10:32:42.054Z,21.03
2023-04-02T10:33:42.018Z,21.19
2023-04-02T10:34:43.121Z,21.41
2023-04-02T10:35:42.093Z,21.44
2023-04-02T10:36:42.127Z,21.30
2023-04-02T10:37:42.097Z,21.20
2023-04-02T10:38:42.150Z,21.17
2023-04-02T10:39:42.165Z,21.15
2023-04-02T10:40:42.188Z,21.11
2023-04-02T10:41:42.174Z,21.17
2023-04-02T10:42:42.215Z,21.22
2023-04-02T10:43:42.268Z,21.20
2023-04-02T10:44:42.237Z,21.28
2023-04-02T10:45:42.276Z,21.26
2023-04-02T10:46:42.360Z,21.14
2023-04-02T10:47:42.440Z,21.15
2023-04-02T10:48:42.390Z,21.19
2023-04-02T10:49:42.498Z,21.14
2023-04-02T10:50:42.479Z,21.06
2023-04-02T10:51:42.482Z,21.14
2023-04-02T10:52:42.555Z,21.19
2023-04-02T10:53:42.561Z,21.18
2023-04-02T10:54:42.600Z,21.02
2023-04-02T10:55:42.609Z,20.98
2023-04-02T10:56:50.570Z,20.92
2023-04-02T10:57:43.670Z,20.83
2023-04-02T10:58:42.652Z,20.74
2023-04-02T10:59:42.679Z,20.69
2023-04-02T11:00:42.617Z,20.73
2023-04-02T11:01:42.677Z,20.76
2023-04-02T11:02:42.723Z,20.80
2023-04-02T11:03:42.733Z,20.79
2023-04-02T11:04:42.637Z,20.81
2023-04-02T11:05:42.590Z,20.71
2023-04-02T11:06:42.586Z,20.65
2023-04-02T11:07:42.638Z,20.54
2023-04-02T11:08:42.617Z,20.44
2023-04-02T11:09:42.623Z,20.42
2023-04-02T11:10:42.615Z,20.38
2023-04-02T11:11:42.750Z,20.39
2023-04-02T11:12:42.751Z,20.41
2023-04-02T11:13:42.801Z,20.38
2023-04-02T11:14:42.874Z,20.29
2023-04-02T11:15:42.900Z,20.33
2023-04-02T11:16:44.493Z,20.29
2023-04-02T11:17:42.990Z,20.25
2023-04-02T11:18:43.002Z,20.22
2023-04-02T11:19:42.958Z,20.17
2023-04-02T11:20:42.944Z,20.10
2023-04-02T11:21:55.144Z,20.06
2023-04-02T11:22:43.949Z,19.88
2023-04-02T11:23:42.960Z,19.83
2023-04-02T11:24:42.984Z,19.82
2023-04-02T11:25:42.973Z,19.78
2023-04-02T11:26:43.070Z,19.64
2023-04-02T11:27:42.966Z,19.64
2023-04-02T11:28:42.928Z,19.68
2023-04-02T11:29:42.975Z,19.67
2023-04-02T11:30:42.925Z,19.63
2023-04-02T11:31:42.953Z,19.58
2023-04-02T11:32:43.082Z,19.49
2023-04-02T11:33:45.490Z,19.48
2023-04-02T11:34:42.907Z,19.34
2023-04-02T11:35:42.954Z,19.28
2023-04-02T11:36:42.898Z,19.29
2023-04-02T11:37:42.917Z,19.30
2023-04-02T11:38:42.926Z,19.36
2023-04-02T11:39:42.877Z,19.46
2023-04-02T11:40:42.882Z,19.35
2023-04-02T11:41:42.889Z,19.38
2023-04-02T11:42:42.831Z,19.34
2023-04-02T11:43:42.864Z,19.28
2023-04-02T11:44:42.919Z,19.32
2023-04-02T11:45:52.055Z,19.35
2023-04-02T11:46:43.856Z,19.38
2023-04-02T11:47:42.844Z,19.36
2023-04-02T11:48:42.821Z,19.36
2023-04-02T11:49:42.826Z,19.13
2023-04-02T11:50:42.775Z,19.03
2023-04-02T11:51:42.794Z,19.00
2023-04-02T11:52:42.773Z,19.00
2023-04-02T11:53:42.762Z,19.04
2023-04-02T11:54:42.758Z,19.12
2023-04-02T11:55:42.817Z,19.02
2023-04-02T11:56:42.727Z,18.81
2023-04-02T11:57:42.818Z,18.79
2023-04-02T11:58:42.749Z,18.85
2023-04-02T11:59:42.745Z,18.80
2023-04-02T12:00:42.702Z,18.87
2023-04-02T12:01:42.748Z,18.77
2023-04-02T12:02:42.906Z,18.75
2023-04-02T12:03:42.776Z,18.64
2023-04-02T12:04:42.896Z,18.73
2023-04-02T12:05:42.886Z,18.80
2023-04-02T12:06:42.836Z,18.81
2023-04-02T12:07:42.874Z,18.81
2023-04-02T12:08:54.683Z,18.68
2023-04-02T12:09:43.952Z,18.59
2023-04-02T12:10:42.942Z,18.38
2023-04-02T12:11:42.912Z,18.43
2023-04-02T12:12:42.894Z,18.49
2023-04-02T12:13:42.911Z,18.59
2023-04-02T12:14:42.933Z,18.55
2023-04-02T12:15:42.920Z,18.59
2023-04-02T12:16:42.956Z,18.65
2023-04-02T12:17:42.906Z,18.67
2023-04-02T12:18:42.866Z,18.70
2023-04-02T12:19:42.907Z,18.68
2023-04-02T12:20:42.904Z,18.69
2023-04-02T12:21:42.951Z,18.68
2023-04-02T12:22:42.941Z,18.65
2023-04-02T12:23:42.958Z,18.51
2023-04-02T12:24:42.982Z,18.56
2023-04-02T12:25:42.981Z,18.56
2023-04-02T12:26:43.110Z,18.56
2023-04-02T12:27:43.096Z,18.57
2023-04-02T12:28:43.102Z,18.56
2023-04-02T12:29:43.176Z,18.41
2023-04-02T12:30:43.198Z,18.45
2023-04-02T12:31:43.198Z,18.46
2023-04-02T12:32:43.208Z,18.46
2023-04-02T12:33:43.223Z,18.50
2023-04-02T12:34:43.175Z,18.47
2023-04-02T12:35:43.183Z,18.40
2023-04-02T12:36:43.149Z,18.38
2023-04-02T12:37:43.210Z,18.42
2023-04-02T12:38:43.201Z,18.48
2023-04-02T12:39:43.239Z,18.40
2023-04-02T12:40:43.183Z,18.42
2023-04-02T12:41:43.235Z,18.29
2023-04-02T12:42:43.244Z,18.16
2023-04-02T12:43:43.259Z,17.83
2023-04-02T12:44:43.274Z,17.70
2023-04-02T12:45:43.281Z,17.73
2023-04-02T12:46:43.376Z,17.50
2023-04-02T12:47:43.368Z,17.40
2023-04-02T12:48:43.384Z,17.30
2023-04-02T12:49:43.499Z,17.37
2023-04-02T12:50:43.505Z,17.25
2023-04-02T12:51:43.558Z,17.16
2023-04-02T12:52:43.613Z,17.16
2023-04-02T12:53:43.678Z,17.28